Airfield :
LOGIN :

Register | Disclaimer

   EN    FR    IT 

 










Legend :    VFR   Marginal VFR   IFR   Intensive IFR   Very Intensive IFR
Visi :
Ceiling :
>= 8 km
>= 3000ft
5 to 8 km
1000 to 3000 ft
1500m to 5 km
500 to 1000 ft
800 to 1500m
200 to 500 ft
< 800m
< 200 ft
Symbols :   Thunderstorms  Fog  Heavy snow  Heavy precipitations  Wind > 20 kt
SIGMETs :     Misc.  Thunderstorms  Icing  Turbulence  Mountain Waves  Volcanic Ashes






- Airport Elevation : 2001 ft
- IATA code : MAD


LEMD - Madrid

CURRENT METAR :
  • 280300Z 19002KT 8000 FEW020 SCT050 07/07 Q1021 NOSIG

EXPIRED METARs :
  • 280230Z 24001KT 6000 FEW035 07/06 Q1021 NOSIG
  • 280200Z VRB02KT 8000 FEW050 07/07 Q1020 NOSIG
  • 272200Z VRB02KT 9999 FEW050 BKN065 10/06 Q1020 NOSIG
  • 280130Z VRB02KT 9000 FEW050 08/07 Q1020 NOSIG
  • 272230Z VRB02KT 9999 FEW065 10/06 Q1019 NOSIG

TAF TAF LEMD
Valid from the 28 at 00:00 until the 29 at 06:00 UTC


272300Z 2800/2906 VRB05KT 9999 FEW040 TX11/2815Z TN05/2806Z
PROB40
TEMPO 2800/2802 3000 RA BKN014
PROB30
TEMPO 2800/2802 27010KT
PROB40
TEMPO 2810/2817 30010KT



MET'MAP, your aeronautical weather chart ! - Copyright ORBIFLY December 2007 - Disclaimer

ORBIFLY MET'MAP TEAM :

Programming & Development : Alexandra Zaïnal
Original concept : Baudouin d'Aumeries
Technical & hardware support : Manuel Goepfert
Assistance : Marc-Olivier Méhu




SOURCES & CREDITS :

   NOAA